Bookmark and Share
Track history (hours):
 

Coastal Messenger

Last reported at 2014-Apr-23 05:21 UTC. Time now 2014-Apr-23 07:11 UTC.
Position N 48°46' W 123°36'.

Length 16 m.

Type: Pleasure craft. MMSI: 316016342.

NotesDate/timePositionNaut miles runAvg speedWind from/ knotsBaromVisibWave heightAir tempDewpointWater temp
2014-Apr-23 05:21N 48°46' W 123°36'0 0.0
2014-Apr-23 04:33N 48°46' W 123°36'0 0.0
2014-Apr-23 03:27N 48°46' W 123°36'0 0.0
2014-Apr-23 01:15N 48°46' W 123°36'0 0.0
2014-Apr-22 23:06N 48°46' W 123°36'0 0.0
2014-Apr-22 22:16N 48°46' W 123°36'2 0.4
2014-Apr-22 17:06N 48°45' W 123°33'0 0.0
2014-Apr-22 15:27N 48°45' W 123°33'0 0.0
2014-Apr-22 12:15N 48°45' W 123°33'0 0.0
2014-Apr-22 11:24N 48°45' W 123°33'0 0.0
2014-Apr-22 10:12N 48°45' W 123°33'0 0.0
2014-Apr-22 08:30N 48°45' W 123°33'0 0.0
2014-Apr-22 07:09N 48°45' W 123°33'0 0.0
2014-Apr-22 04:21N 48°45' W 123°33'0 0.0
2014-Apr-22 03:33N 48°45' W 123°33'0 0.0
2014-Apr-22 02:27N 48°45' W 123°33'0 0.0
2014-Apr-22 01:33N 48°45' W 123°33'0 0.0
2014-Apr-22 00:33N 48°45' W 123°33'0 0.0
2014-Apr-21 23:21N 48°45' W 123°33'0 0.0
2014-Apr-21 22:21N 48°45' W 123°33'0 0.0
2014-Apr-21 21:33N 48°45' W 123°33'6 5.6
2014-Apr-21 20:33N 48°50' W 123°35'3 2.9
2014-Apr-21 19:32N 48°53' W 123°37'8 8.3
2014-Apr-21 18:31N 48°59' W 123°47'2 0.2
2014-Apr-21 08:15N 48°60' W 123°49'0 0.0
2014-Apr-21 07:33N 48°60' W 123°49'0 0.0
2014-Apr-20 13:33N 48°60' W 123°49'0 0.0
2014-Apr-20 12:33N 48°60' W 123°49'0 0.0
2014-Apr-20 11:27N 48°60' W 123°49'0 0.0
2014-Apr-20 10:15N 48°60' W 123°49'0 0.0
2014-Apr-20 09:27N 48°60' W 123°49'0 0.0
2014-Apr-20 06:27N 48°60' W 123°49'0 0.0
2014-Apr-20 05:09N 48°60' W 123°49'0 0.0
2014-Apr-20 04:33N 48°60' W 123°49'0 0.0
2014-Apr-20 02:33N 48°60' W 123°49'0 0.0
2014-Apr-19 21:21N 48°60' W 123°49'0 0.0
2014-Apr-19 20:27N 48°60' W 123°49'0 0.0
2014-Apr-19 14:15N 48°60' W 123°49'0 0.0
2014-Apr-19 06:15N 48°60' W 123°49'0 0.0
2014-Apr-19 03:03N 48°60' W 123°49'0 0.0
2014-Apr-19 02:09N 48°60' W 123°49'0 0.0
2014-Apr-19 00:33N 48°60' W 123°49'0 0.0
2014-Apr-18 23:09N 48°60' W 123°49'0 0.0
2014-Apr-18 22:30N 48°60' W 123°49'6 0.2
2014-Apr-17 17:33N 48°56' W 123°42'1 0.9
2014-Apr-17 16:30N 48°56' W 123°43'0 0.0
2014-Apr-17 15:18N 48°56' W 123°43'0 0.0
2014-Apr-17 14:18N 48°56' W 123°43'0 0.0
2014-Apr-17 13:24N 48°56' W 123°43'0 0.0
2014-Apr-17 12:18N 48°56' W 123°43'0 0.0
2014-Apr-17 11:30N 48°56' W 123°43'0 0.0
2014-Apr-17 10:30N 48°56' W 123°43'0 0.0
2014-Apr-17 04:24N 48°56' W 123°43'0 0.0
2014-Apr-17 03:25N 48°56' W 123°43'0 0.0
2014-Apr-17 02:31N 48°56' W 123°43'0 0.0
2014-Apr-17 01:13N 48°56' W 123°43'0 0.0
2014-Apr-16 17:28N 48°56' W 123°43'0 0.0
2014-Apr-16 16:16N 48°56' W 123°43'0 0.0
2014-Apr-16 15:22N 48°56' W 123°43'0 0.0
2014-Apr-16 14:28N 48°56' W 123°43'0 0.0
2014-Apr-16 13:28N 48°56' W 123°43'0 0.0
2014-Apr-16 12:22N 48°56' W 123°43'0 0.0
2014-Apr-16 11:28N 48°56' W 123°43'0 0.0
2014-Apr-16 10:28N 48°56' W 123°43'0 0.0
2014-Apr-16 09:16N 48°56' W 123°43'0 0.0
2014-Apr-16 08:22N 48°56' W 123°43'0 0.0
2014-Apr-16 07:28N 48°56' W 123°43'0 0.0
2014-Apr-16 06:28N 48°56' W 123°43'0 0.0
2014-Apr-16 04:22N 48°56' W 123°43'0 0.0
2014-Apr-16 03:22N 48°56' W 123°43'0 0.0
2014-Apr-16 02:10N 48°56' W 123°43'0 0.0
2014-Apr-16 01:16N 48°56' W 123°43'0 0.0
2014-Apr-16 00:28N 48°56' W 123°43'0 0.0
2014-Apr-15 23:22N 48°56' W 123°43'0 0.0
2014-Apr-15 22:16N 48°56' W 123°43'0 0.0
2014-Apr-15 21:28N 48°56' W 123°43'  

Dump ship's entire track history

sailing weather and tide predictions

Coastal Messenger — CFL9726 — position and weather